createdAt,value
2017-07-02T00:00:18.024Z,93.54
2017-07-02T00:02:10.588Z,93.83
2017-07-02T00:02:51.107Z,94.02
2017-07-02T00:03:31.528Z,94.21
2017-07-02T00:04:12.141Z,93.93
2017-07-02T00:04:52.542Z,94.12
2017-07-02T00:05:32.994Z,93.93
2017-07-02T00:07:30.624Z,94.4
2017-07-02T00:08:11.038Z,93.74
2017-07-02T00:08:51.485Z,93.93
2017-07-02T00:09:31.939Z,94.12
2017-07-02T00:10:12.465Z,94.12
2017-07-02T00:10:52.928Z,93.83
2017-07-02T00:11:33.355Z,94.17
2017-07-02T00:12:13.835Z,94.12
2017-07-02T00:12:54.240Z,94.21
2017-07-02T00:13:34.693Z,94.12
2017-07-02T00:14:15.152Z,94.12
2017-07-02T00:14:55.622Z,93.98
2017-07-02T00:15:36.080Z,94.31
2017-07-02T00:16:16.502Z,93.93
2017-07-02T00:16:56.956Z,94.12
2017-07-02T00:17:37.404Z,94.21
2017-07-02T00:18:17.883Z,94.17
2017-07-02T00:18:58.397Z,93.93
2017-07-02T00:19:38.806Z,94.02
2017-07-02T00:20:19.240Z,94.02
2017-07-02T00:20:59.749Z,94.02
2017-07-02T00:21:40.178Z,94.64
2017-07-02T00:22:20.742Z,94.4
2017-07-02T00:23:01.243Z,94.21
2017-07-02T00:23:41.659Z,94.02
2017-07-02T00:25:29.170Z,94.5
2017-07-02T00:26:09.563Z,94.5
2017-07-02T00:26:50.020Z,94.69
2017-07-02T00:27:30.490Z,94.6
2017-07-02T00:28:10.946Z,94.6
2017-07-02T00:28:51.415Z,94.31
2017-07-02T00:29:31.936Z,94.31
2017-07-02T00:31:49.771Z,94.5
2017-07-02T00:33:47.555Z,94.21
2017-07-02T00:34:28.032Z,94.31
2017-07-02T00:35:08.426Z,94.31
2017-07-02T00:35:48.889Z,94.21
2017-07-02T00:36:29.325Z,94.4
2017-07-02T00:38:47.155Z,94.26
2017-07-02T00:39:27.569Z,94.55
2017-07-02T00:40:08.032Z,95.31
2017-07-02T00:40:48.634Z,94.55
2017-07-02T00:41:29.044Z,94.35
2017-07-02T00:42:09.500Z,94.35
2017-07-02T00:42:50.028Z,94.45
2017-07-02T00:43:30.599Z,94.45
2017-07-02T00:44:11.113Z,94.35
2017-07-02T00:44:51.489Z,94.35
2017-07-02T00:45:31.956Z,94.74
2017-07-02T00:46:12.364Z,94.64
2017-07-02T00:46:52.811Z,94.55
2017-07-02T00:47:33.271Z,94.45
2017-07-02T00:48:13.733Z,94.35
2017-07-02T00:48:54.197Z,94.45
2017-07-02T00:49:34.651Z,94.45
2017-07-02T00:50:15.117Z,94.45
2017-07-02T00:50:55.567Z,94.74
2017-07-02T00:52:48.121Z,94.64
2017-07-02T00:53:28.621Z,94.31
2017-07-02T00:54:09.156Z,94.45
2017-07-02T00:54:49.661Z,94.64
2017-07-02T00:55:30.123Z,94.69
2017-07-02T00:56:10.668Z,94.64
2017-07-02T00:56:51.085Z,94.31
2017-07-02T00:57:31.629Z,94.69
2017-07-02T00:59:29.266Z,94.21
2017-07-02T01:00:09.720Z,95.27
2017-07-02T01:02:07.325Z,94.98
2017-07-02T01:02:47.801Z,95.07
2017-07-02T01:03:28.285Z,94.89
2017-07-02T01:04:08.740Z,94.21
2017-07-02T01:04:49.258Z,94.98
2017-07-02T01:05:29.698Z,94.64
2017-07-02T01:06:10.108Z,94.12
2017-07-02T01:06:50.612Z,94.89
2017-07-02T01:07:31.176Z,94.6
2017-07-02T01:08:11.609Z,94.79
2017-07-02T01:08:52.066Z,94.69
2017-07-02T01:09:32.575Z,94.89
2017-07-02T01:10:12.985Z,94.79
2017-07-02T01:10:53.414Z,94.98
2017-07-02T01:11:33.892Z,94.31
2017-07-02T01:12:14.427Z,95.17
2017-07-02T01:12:54.919Z,95.27
2017-07-02T01:13:35.354Z,95.27
2017-07-02T01:14:15.817Z,94.5
2017-07-02T01:16:08.430Z,94.79
2017-07-02T01:16:48.858Z,94.21
2017-07-02T01:17:29.366Z,94.89
2017-07-02T01:18:09.853Z,94.6
2017-07-02T01:18:50.306Z,95.07
2017-07-02T01:19:30.780Z,95.46
2017-07-02T01:20:11.234Z,94.79
2017-07-02T01:20:51.678Z,95.17
2017-07-02T01:21:32.182Z,94.98
2017-07-02T01:22:12.624Z,95.22
2017-07-02T01:22:53.156Z,95.36
2017-07-02T01:23:33.628Z,94.89
2017-07-02T01:24:14.063Z,95.75
2017-07-02T01:26:01.551Z,95.7
2017-07-02T01:26:42.112Z,95.51
2017-07-02T01:27:22.589Z,95.6
2017-07-02T01:28:03.067Z,95.75
2017-07-02T01:28:43.556Z,95.51
2017-07-02T01:29:24.039Z,95.51
2017-07-02T01:30:04.541Z,95.79
2017-07-02T01:30:44.993Z,95.7
2017-07-02T01:31:25.480Z,95.6
2017-07-02T01:32:05.975Z,95.17
2017-07-02T01:32:46.457Z,95.36
2017-07-02T01:33:26.950Z,95.75
2017-07-02T01:34:07.428Z,95.56
2017-07-02T01:34:47.928Z,95.6
2017-07-02T01:35:28.411Z,95.94
2017-07-02T01:36:08.927Z,95.7
2017-07-02T01:36:49.362Z,95.7
2017-07-02T01:37:29.792Z,95.22
2017-07-02T01:38:10.298Z,95.31
2017-07-02T01:40:02.926Z,95.79
2017-07-02T01:40:43.373Z,95.6
2017-07-02T01:41:23.779Z,95.41
2017-07-02T01:42:04.382Z,95.41
2017-07-02T01:42:44.774Z,94.93
2017-07-02T01:43:25.192Z,94.93
2017-07-02T01:44:05.587Z,95.12
2017-07-02T01:44:46.076Z,95.03
2017-07-02T01:45:26.539Z,95.12
2017-07-02T01:47:44.396Z,95.12
2017-07-02T01:48:24.887Z,94.93
2017-07-02T01:50:42.710Z,95.22
2017-07-02T01:51:23.210Z,95.41
2017-07-02T01:52:03.715Z,95.12
2017-07-02T01:52:44.248Z,95.41
2017-07-02T01:53:24.652Z,95.41
2017-07-02T01:54:05.150Z,95.51
2017-07-02T01:56:02.801Z,94.74
2017-07-02T01:56:43.283Z,94.84
2017-07-02T01:57:23.751Z,94.74
2017-07-02T01:59:21.371Z,94.55
2017-07-02T02:00:01.819Z,95.12
2017-07-02T02:00:42.247Z,94.35
2017-07-02T02:01:22.676Z,94.93
2017-07-02T02:02:03.117Z,94.64
2017-07-02T02:02:43.657Z,95.12
2017-07-02T02:03:24.140Z,95.22
2017-07-02T02:04:04.615Z,95.03
2017-07-02T02:04:45.059Z,94.74
2017-07-02T02:05:25.522Z,94.64
2017-07-02T02:07:13.107Z,94.55
2017-07-02T02:07:53.611Z,94.45
2017-07-02T02:08:34.127Z,94.55
2017-07-02T02:09:14.597Z,94.55
2017-07-02T02:09:55.038Z,94.55
2017-07-02T02:10:35.522Z,95.22
2017-07-02T02:11:15.930Z,94.84
2017-07-02T02:11:56.365Z,94.93
2017-07-02T02:12:36.821Z,94.45
2017-07-02T02:14:49.650Z,95.03
2017-07-02T02:15:30.143Z,94.74
2017-07-02T02:16:10.643Z,94.55
2017-07-02T02:16:51.140Z,94.93
2017-07-02T02:17:31.577Z,94.89
2017-07-02T02:19:29.200Z,94.98
2017-07-02T02:20:09.763Z,94.59
2017-07-02T02:20:50.254Z,94.79
2017-07-02T02:21:30.688Z,94.79
2017-07-02T02:22:11.173Z,94.64
2017-07-02T02:22:51.636Z,95.22
2017-07-02T02:23:32.060Z,94.93
2017-07-02T02:25:29.919Z,94.74
2017-07-02T02:26:10.391Z,94.55
2017-07-02T02:26:50.834Z,95.51
2017-07-02T02:27:31.279Z,94.93
2017-07-02T02:28:11.745Z,95.22
2017-07-02T02:28:52.222Z,94.35
2017-07-02T02:29:32.764Z,95.03
2017-07-02T02:30:13.219Z,95.22
2017-07-02T02:30:53.695Z,95.41
2017-07-02T02:31:34.131Z,94.93
2017-07-02T02:32:14.570Z,95.03
2017-07-02T02:32:54.980Z,95.03
2017-07-02T02:34:42.505Z,95.12
2017-07-02T02:35:22.994Z,95.22
2017-07-02T02:36:03.423Z,95.41
2017-07-02T02:36:43.815Z,95.31
2017-07-02T02:37:24.255Z,95.22
2017-07-02T02:38:04.701Z,94.93
2017-07-02T02:38:45.161Z,94.84
2017-07-02T02:39:25.664Z,94.74
2017-07-02T02:40:06.197Z,94.84
2017-07-02T02:40:46.637Z,94.64
2017-07-02T02:41:27.089Z,94.74
2017-07-02T02:42:07.534Z,94.64
2017-07-02T02:42:48.023Z,94.64
2017-07-02T02:43:28.497Z,95.12
2017-07-02T02:44:08.952Z,94.93
2017-07-02T02:44:49.388Z,95.12
2017-07-02T02:45:29.847Z,94.93
2017-07-02T02:47:47.664Z,94.93
2017-07-02T02:48:28.148Z,94.84
2017-07-02T02:49:08.547Z,94.55
2017-07-02T02:49:49.001Z,94.84
2017-07-02T02:50:29.438Z,94.84
2017-07-02T02:51:09.915Z,94.74
2017-07-02T02:51:50.418Z,94.93
2017-07-02T02:52:30.829Z,94.35
2017-07-02T02:53:11.288Z,94.55
2017-07-02T02:55:29.292Z,94.74
2017-07-02T02:56:09.717Z,94.55
2017-07-02T02:56:50.274Z,94.64
2017-07-02T02:57:30.774Z,94.74
2017-07-02T02:58:11.122Z,94.84
2017-07-02T02:58:51.597Z,94.74
2017-07-02T02:59:32.066Z,94.74
2017-07-02T03:00:12.530Z,94.74
2017-07-02T03:00:52.912Z,94.64
2017-07-02T03:01:33.398Z,95.12
2017-07-02T03:02:13.864Z,95.12
2017-07-02T03:02:54.272Z,94.55
2017-07-02T03:03:34.797Z,95.22
2017-07-02T03:05:47.672Z,94.74
2017-07-02T03:06:28.066Z,94.35
2017-07-02T03:07:08.621Z,95.51
2017-07-02T03:07:49.072Z,95.41
2017-07-02T03:08:29.530Z,95.51
2017-07-02T03:09:09.985Z,95.51
2017-07-02T03:09:50.446Z,95.41
2017-07-02T03:10:30.897Z,94.74
2017-07-02T03:11:11.379Z,94.64
2017-07-02T03:11:51.828Z,95.12
2017-07-02T03:12:32.276Z,95.12
2017-07-02T03:13:12.744Z,95.12
2017-07-02T03:13:53.221Z,95.03
2017-07-02T03:14:33.638Z,94.55
2017-07-02T03:15:14.074Z,95.12
2017-07-02T03:15:54.536Z,95.22
2017-07-02T03:16:34.971Z,95.41
2017-07-02T03:17:15.395Z,95.12
2017-07-02T03:17:55.913Z,95.41
2017-07-02T03:18:36.495Z,95.03
2017-07-02T03:19:17.005Z,95.12
2017-07-02T03:19:57.413Z,95.12
2017-07-02T03:20:37.885Z,94.64
2017-07-02T03:21:18.458Z,94.64
2017-07-02T03:21:58.887Z,95.12
2017-07-02T03:22:39.321Z,94.45
2017-07-02T03:23:19.761Z,95.22
2017-07-02T03:25:32.466Z,94.74
2017-07-02T03:26:12.973Z,95.12
2017-07-02T03:26:53.404Z,95.6
2017-07-02T03:27:33.828Z,95.22
2017-07-02T03:28:14.299Z,95.22
2017-07-02T03:28:54.740Z,95.31
2017-07-02T03:29:35.192Z,95.41
2017-07-02T03:30:15.662Z,95.51
2017-07-02T03:30:56.126Z,95.03
2017-07-02T03:31:36.626Z,95.03
2017-07-02T03:32:17.020Z,94.93
2017-07-02T03:32:57.576Z,95.12
2017-07-02T03:33:38.059Z,94.74
2017-07-02T03:34:18.478Z,95.22
2017-07-02T03:34:58.935Z,95.22
2017-07-02T03:35:39.392Z,95.31
2017-07-02T03:36:19.842Z,95.31
2017-07-02T03:37:00.314Z,95.03
2017-07-02T03:37:40.768Z,95.03
2017-07-02T03:38:21.224Z,95.31
2017-07-02T03:39:01.696Z,95.12
2017-07-02T03:39:42.119Z,95.31
2017-07-02T03:40:22.530Z,95.31
2017-07-02T03:41:02.979Z,95.22
2017-07-02T03:41:43.487Z,95.31
2017-07-02T03:42:24.012Z,95.22
2017-07-02T03:43:04.536Z,95.51
2017-07-02T03:43:44.917Z,95.41
2017-07-02T03:44:25.398Z,94.93
2017-07-02T03:45:05.829Z,95.41
2017-07-02T03:45:46.295Z,95.22
2017-07-02T03:46:26.749Z,95.22
2017-07-02T03:47:07.294Z,94.84
2017-07-02T03:47:47.767Z,95.12
2017-07-02T03:48:28.390Z,95.41
2017-07-02T03:49:08.889Z,94.64
2017-07-02T03:49:49.324Z,94.74
2017-07-02T03:50:29.804Z,94.64
2017-07-02T03:51:10.229Z,94.55
2017-07-02T03:51:50.637Z,95.51
2017-07-02T03:52:31.087Z,95.51
2017-07-02T03:53:11.537Z,95.31
2017-07-02T03:53:52.011Z,95.22
2017-07-02T03:54:32.446Z,95.41
2017-07-02T03:55:12.910Z,94.93
2017-07-02T03:57:30.751Z,95.03
2017-07-02T03:58:11.347Z,94.93
2017-07-02T03:58:51.876Z,95.31
2017-07-02T03:59:32.368Z,95.22
2017-07-02T04:00:12.810Z,95.22
2017-07-02T04:00:53.260Z,95.12
2017-07-02T04:01:33.796Z,95.22
2017-07-02T04:02:14.267Z,95.22
2017-07-02T04:02:54.725Z,95.12
2017-07-02T04:03:35.203Z,95.51
2017-07-02T04:04:15.649Z,95.41
2017-07-02T04:04:56.094Z,95.41
2017-07-02T04:07:13.929Z,95.31
2017-07-02T04:07:54.471Z,95.41
2017-07-02T04:08:34.904Z,95.12
2017-07-02T04:09:15.326Z,94.74
2017-07-02T04:09:55.789Z,94.45
2017-07-02T04:10:36.262Z,95.41
2017-07-02T04:11:16.751Z,95.12
2017-07-02T04:11:57.201Z,95.41
2017-07-02T04:12:37.647Z,95.41
2017-07-02T04:13:18.129Z,95.31
2017-07-02T04:13:58.620Z,95.41
2017-07-02T04:14:39.066Z,95.12
2017-07-02T04:15:19.524Z,95.41
2017-07-02T04:15:59.919Z,94.93
2017-07-02T04:16:40.392Z,94.64
2017-07-02T04:17:20.867Z,94.64
2017-07-02T04:18:01.335Z,94.74
2017-07-02T04:18:41.777Z,94.64
2017-07-02T04:20:39.438Z,95.03
2017-07-02T04:21:19.826Z,95.12
2017-07-02T04:22:00.269Z,94.55
2017-07-02T04:22:40.710Z,94.74
2017-07-02T04:23:21.175Z,94.45
2017-07-02T04:24:01.618Z,94.55
2017-07-02T04:24:42.060Z,94.93
2017-07-02T04:25:22.521Z,95.12
2017-07-02T04:26:02.938Z,94.74
2017-07-02T04:26:43.387Z,94.64
2017-07-02T04:27:23.895Z,94.74
2017-07-02T04:28:04.393Z,94.55
2017-07-02T04:28:44.921Z,94.64
2017-07-02T04:29:25.419Z,94.74
2017-07-02T04:30:05.950Z,94.64
2017-07-02T04:30:46.405Z,94.74
2017-07-02T04:31:26.814Z,94.64
2017-07-02T04:32:07.259Z,94.64
2017-07-02T04:32:47.723Z,94.84
2017-07-02T04:33:28.159Z,94.84
2017-07-02T04:34:08.603Z,94.64
2017-07-02T04:36:06.358Z,94.98
2017-07-02T04:36:46.765Z,94.59
2017-07-02T04:37:27.248Z,95.17
2017-07-02T04:38:07.788Z,95.17
2017-07-02T04:38:48.234Z,95.26
2017-07-02T04:41:00.947Z,95.26
2017-07-02T04:41:41.431Z,95.17
2017-07-02T04:42:21.881Z,95.26
2017-07-02T04:43:02.344Z,94.4
2017-07-02T04:44:49.826Z,94.35
2017-07-02T04:45:30.315Z,95.03
2017-07-02T04:46:10.717Z,95.12
2017-07-02T04:46:51.230Z,94.35
2017-07-02T04:47:31.654Z,94.84
2017-07-02T04:48:12.084Z,94.74
2017-07-02T04:48:52.619Z,94.69
2017-07-02T04:49:33.095Z,94.84
2017-07-02T04:50:13.524Z,94.69
2017-07-02T04:50:54.006Z,94.4
2017-07-02T04:51:34.470Z,94.59
2017-07-02T04:52:14.928Z,94.98
2017-07-02T04:52:55.377Z,94.59
2017-07-02T04:53:35.837Z,94.69
2017-07-02T04:54:16.283Z,94.59
2017-07-02T04:54:56.719Z,94.5
2017-07-02T04:55:37.130Z,94.21
2017-07-02T04:56:17.609Z,94.4
2017-07-02T04:56:58.049Z,94.5
2017-07-02T04:57:38.520Z,94.69
2017-07-02T04:58:18.970Z,94.4
2017-07-02T04:58:59.416Z,94.89
2017-07-02T05:00:46.916Z,94.5
2017-07-02T05:01:27.411Z,94.21
2017-07-02T05:02:07.845Z,94.5
2017-07-02T05:02:48.258Z,94.69
2017-07-02T05:03:28.720Z,94.69
2017-07-02T05:04:09.208Z,94.79
2017-07-02T05:04:49.697Z,94.5
2017-07-02T05:05:30.138Z,94.69
2017-07-02T05:06:10.604Z,94.31
2017-07-02T05:06:51.080Z,95.17
2017-07-02T05:07:31.598Z,94.5
2017-07-02T05:08:12.092Z,95.17
2017-07-02T05:08:52.585Z,94.89
2017-07-02T05:09:33.030Z,94.98
2017-07-02T05:10:13.610Z,94.89
2017-07-02T05:10:54.129Z,94.89
2017-07-02T05:11:34.585Z,95.17
2017-07-02T05:12:15.073Z,94.89
2017-07-02T05:12:55.539Z,94.89
2017-07-02T05:13:36.003Z,94.69
2017-07-02T05:15:53.855Z,95.17
2017-07-02T05:16:34.377Z,94.79
2017-07-02T05:17:14.850Z,94.59
2017-07-02T05:17:55.294Z,94.79
2017-07-02T05:18:35.730Z,94.02
2017-07-02T05:19:16.194Z,94.21
2017-07-02T05:19:56.617Z,94.69
2017-07-02T05:20:37.078Z,95.17
2017-07-02T05:21:17.524Z,94.4
2017-07-02T05:21:57.974Z,94.98
2017-07-02T05:22:38.418Z,95.17
2017-07-02T05:23:18.909Z,95.17
2017-07-02T05:23:59.356Z,95.17
2017-07-02T05:24:39.796Z,94.21
2017-07-02T05:25:20.257Z,94.64
2017-07-02T05:26:00.717Z,94.54
2017-07-02T05:26:41.176Z,94.5
2017-07-02T05:27:21.644Z,94.45
2017-07-02T05:28:02.136Z,94.31
2017-07-02T05:29:59.770Z,95.17
2017-07-02T05:30:40.228Z,94.21
2017-07-02T05:31:20.697Z,94.69
2017-07-02T05:32:01.238Z,94.74
2017-07-02T05:32:41.674Z,94.64
2017-07-02T05:33:22.125Z,94.54
2017-07-02T05:34:02.856Z,94.64
2017-07-02T05:34:43.059Z,94.26
2017-07-02T05:35:23.522Z,94.26
2017-07-02T05:36:03.962Z,94.45
2017-07-02T05:36:44.483Z,94.45
2017-07-02T05:37:24.889Z,94.35
2017-07-02T05:38:05.376Z,94.45
2017-07-02T05:38:45.813Z,94.74
2017-07-02T05:39:26.411Z,94.45
2017-07-02T05:40:06.856Z,94.79
2017-07-02T05:40:47.325Z,95.21
2017-07-02T05:41:27.774Z,94.59
2017-07-02T05:42:08.235Z,94.59
2017-07-02T05:42:48.692Z,94.4
2017-07-02T05:43:29.239Z,94.69
2017-07-02T05:44:09.761Z,94.02
2017-07-02T05:44:50.185Z,94.69
2017-07-02T05:45:30.671Z,94.49
2017-07-02T05:46:11.081Z,94.69
2017-07-02T05:46:51.597Z,94.49
2017-07-02T05:47:32.021Z,94.88
2017-07-02T05:48:12.469Z,95.07
2017-07-02T05:48:52.916Z,94.79
2017-07-02T05:49:33.395Z,94.64
2017-07-02T05:50:13.837Z,94.49
2017-07-02T05:50:54.478Z,94.59
2017-07-02T05:51:34.951Z,94.4
2017-07-02T05:52:15.429Z,94.49
2017-07-02T05:52:55.875Z,95.7
2017-07-02T05:53:36.309Z,95.41
2017-07-02T05:54:16.844Z,94.74
2017-07-02T05:56:09.355Z,94.64
2017-07-02T05:56:49.880Z,94.64
2017-07-02T05:57:30.367Z,95.03
2017-07-02T05:58:10.823Z,94.93
2017-07-02T05:58:51.409Z,94.64
2017-07-02T06:00:38.897Z,94.35
2017-07-02T06:01:19.369Z,94.54
2017-07-02T06:01:59.810Z,95.31
2017-07-02T06:02:40.285Z,94.54
2017-07-02T06:03:20.732Z,94.54
2017-07-02T06:04:01.205Z,94.59
2017-07-02T06:04:41.625Z,95.17
2017-07-02T06:05:22.108Z,94.98
2017-07-02T06:06:02.510Z,94.88
2017-07-02T06:06:42.965Z,94.69
2017-07-02T06:07:23.434Z,94.98
2017-07-02T06:08:04.138Z,94.78
2017-07-02T06:09:56.458Z,94.88
2017-07-02T06:10:36.916Z,94.98
2017-07-02T06:11:17.433Z,94.69
2017-07-02T06:11:57.826Z,94.78
2017-07-02T06:12:38.322Z,95.36
2017-07-02T06:13:18.733Z,94.21
2017-07-02T06:13:59.167Z,94.49
2017-07-02T06:14:39.638Z,94.59
2017-07-02T06:15:20.071Z,94.4
2017-07-02T06:17:37.867Z,94.4
2017-07-02T06:18:18.391Z,94.54
2017-07-02T06:18:58.849Z,94.31
2017-07-02T06:19:39.310Z,94.21
2017-07-02T06:20:19.780Z,95.26
2017-07-02T06:21:00.263Z,94.98
2017-07-02T06:21:40.776Z,94.69
2017-07-02T06:22:21.315Z,94.88
2017-07-02T06:23:01.802Z,94.98
2017-07-02T06:23:42.294Z,94.98
2017-07-02T06:24:22.815Z,95.07
2017-07-02T06:25:03.300Z,94.59
2017-07-02T06:25:43.769Z,94.78
2017-07-02T06:26:24.205Z,95.07
2017-07-02T06:27:04.678Z,94.88
2017-07-02T06:27:45.195Z,94.31
2017-07-02T06:28:25.640Z,94.31
2017-07-02T06:29:06.124Z,94.59
2017-07-02T06:29:46.633Z,94.64
2017-07-02T06:30:27.103Z,94.21
2017-07-02T06:32:24.884Z,94.59
2017-07-02T06:33:05.333Z,94.49
2017-07-02T06:33:45.831Z,95.03
2017-07-02T06:34:26.321Z,94.83
2017-07-02T06:35:06.761Z,95.03
2017-07-02T06:35:47.229Z,94.64
2017-07-02T06:36:27.704Z,95.03
2017-07-02T06:37:08.249Z,94.83
2017-07-02T06:37:48.771Z,94.4
2017-07-02T06:38:29.213Z,95.12
2017-07-02T06:39:09.672Z,94.93
2017-07-02T06:39:50.133Z,94.45
2017-07-02T06:40:30.628Z,94.73
2017-07-02T06:41:11.044Z,94.64
2017-07-02T06:41:51.481Z,94.26
2017-07-02T06:42:32.006Z,94.54
2017-07-02T06:43:12.473Z,94.73
2017-07-02T06:43:52.933Z,94.35
2017-07-02T06:44:33.342Z,94.64
2017-07-02T06:45:13.786Z,94.93
2017-07-02T06:45:54.227Z,94.83
2017-07-02T06:46:34.671Z,94.88
2017-07-02T06:47:15.250Z,95.94
2017-07-02T06:47:55.723Z,95.65
2017-07-02T06:48:36.178Z,95.65
2017-07-02T06:49:16.655Z,95.65
2017-07-02T06:49:57.100Z,95.45
2017-07-02T06:50:37.550Z,96.22
2017-07-02T06:51:18.007Z,96.13
2017-07-02T06:51:58.446Z,95.84
2017-07-02T06:52:38.998Z,96.8
2017-07-02T06:53:19.449Z,96.42
2017-07-02T06:53:59.850Z,96.32
2017-07-02T06:54:40.402Z,96.42
2017-07-02T06:55:20.883Z,95.55
2017-07-02T06:56:01.334Z,95.36
2017-07-02T06:56:41.772Z,95.75
2017-07-02T06:57:22.228Z,96.03
2017-07-02T06:58:02.788Z,96.32
2017-07-02T07:00:00.397Z,95.84
2017-07-02T07:00:40.884Z,95.36
2017-07-02T07:01:21.372Z,96.51
2017-07-02T07:02:01.854Z,95.55
2017-07-02T07:02:42.339Z,95.84
2017-07-02T07:03:22.831Z,95.75
2017-07-02T07:04:03.318Z,96.51
2017-07-02T07:04:43.810Z,95.65
2017-07-02T07:05:24.321Z,96.8
2017-07-02T07:06:04.782Z,96.32
2017-07-02T07:06:45.275Z,95.94
2017-07-02T07:07:25.754Z,96.32
2017-07-02T07:08:06.248Z,96.7
2017-07-02T07:08:46.754Z,96.8
2017-07-02T07:09:27.246Z,96.13
2017-07-02T07:10:07.740Z,96.89
2017-07-02T07:10:48.209Z,96.51
2017-07-02T07:11:28.702Z,96.7
2017-07-02T07:12:09.185Z,95.65
2017-07-02T07:12:49.682Z,96.03
2017-07-02T07:13:30.174Z,96.22
2017-07-02T07:14:10.667Z,96.32
2017-07-02T07:14:51.153Z,96.22
2017-07-02T07:15:31.664Z,95.94
2017-07-02T07:16:12.152Z,96.13
2017-07-02T07:16:52.642Z,95.84
2017-07-02T07:17:33.131Z,95.17
2017-07-02T07:18:13.600Z,95.75
2017-07-02T07:18:54.094Z,95.36
2017-07-02T07:19:34.590Z,96.32
2017-07-02T07:20:15.079Z,95.84
2017-07-02T07:20:55.574Z,96.13
2017-07-02T07:21:36.050Z,96.13
2017-07-02T07:22:16.544Z,96.32
2017-07-02T07:22:57.029Z,95.45
2017-07-02T07:23:37.517Z,96.32
2017-07-02T07:24:18.008Z,96.17
2017-07-02T07:24:58.505Z,95.94
2017-07-02T07:25:38.999Z,95.75
2017-07-02T07:26:19.498Z,95.36
2017-07-02T07:27:00.002Z,95.31
2017-07-02T07:27:40.487Z,95.89
2017-07-02T07:28:20.983Z,95.12
2017-07-02T07:29:01.476Z,95.79
2017-07-02T07:29:41.973Z,95.03
2017-07-02T07:30:22.465Z,95.79
2017-07-02T07:31:02.958Z,94.73
2017-07-02T07:31:43.453Z,94.73
2017-07-02T07:32:23.941Z,95.21
2017-07-02T07:33:04.431Z,94.83
2017-07-02T07:33:44.910Z,94.73
2017-07-02T07:34:25.373Z,94.73
2017-07-02T07:35:05.865Z,94.35
2017-07-02T07:35:46.358Z,94.45
2017-07-02T07:36:26.845Z,94.93
2017-07-02T07:37:07.303Z,95.5
2017-07-02T07:37:47.786Z,95.4
2017-07-02T07:38:28.276Z,95.4
2017-07-02T07:39:08.766Z,94.83
2017-07-02T07:39:49.258Z,95.5
2017-07-02T07:40:29.716Z,94.45
2017-07-02T07:42:17.239Z,94.83
2017-07-02T07:42:57.684Z,95.31
2017-07-02T07:43:38.140Z,95.12
2017-07-02T07:44:18.605Z,94.88
2017-07-02T07:44:59.038Z,94.64
2017-07-02T07:45:39.466Z,94.78
2017-07-02T07:46:19.900Z,95.07
2017-07-02T07:47:00.354Z,94.78
2017-07-02T07:47:40.824Z,95.03
2017-07-02T07:48:21.474Z,95.36
2017-07-02T07:49:01.937Z,94.64
2017-07-02T07:49:42.499Z,94.68
2017-07-02T07:50:22.959Z,95.03
2017-07-02T07:51:03.387Z,94.54
2017-07-02T07:53:16.115Z,94.73
2017-07-02T07:53:56.613Z,94.68
2017-07-02T07:54:37.132Z,94.64
2017-07-02T07:55:17.545Z,95.03
2017-07-02T07:55:58.001Z,94.64
2017-07-02T07:56:38.462Z,95.45
2017-07-02T07:57:18.954Z,94.35
2017-07-02T07:57:59.402Z,94.73
2017-07-02T07:58:40.002Z,94.73
2017-07-02T08:00:52.770Z,94.64
2017-07-02T08:01:33.228Z,94.73
2017-07-02T08:02:13.738Z,94.83
2017-07-02T08:02:54.189Z,95.31
2017-07-02T08:03:34.665Z,95.98
2017-07-02T08:04:15.117Z,95.5
2017-07-02T08:04:55.599Z,94.93
2017-07-02T08:05:36.096Z,95.79
2017-07-02T08:06:16.516Z,94.93
2017-07-02T08:06:56.984Z,95.03
2017-07-02T08:07:37.449Z,95.79
2017-07-02T08:08:18.014Z,94.98
2017-07-02T08:08:58.459Z,95.17
2017-07-02T08:09:38.899Z,94.83
2017-07-02T08:10:19.345Z,94.83
2017-07-02T08:10:59.759Z,95.17
2017-07-02T08:11:40.216Z,94.3
2017-07-02T08:12:20.721Z,94.59
2017-07-02T08:13:01.192Z,94.59
2017-07-02T08:13:41.747Z,94.01
2017-07-02T08:14:22.130Z,94.11
2017-07-02T08:15:02.692Z,94.11
2017-07-02T08:15:43.140Z,93.82
2017-07-02T08:16:23.683Z,93.91
2017-07-02T08:17:04.070Z,94.11
2017-07-02T08:17:44.529Z,94.11
2017-07-02T08:18:25.084Z,94.06
2017-07-02T08:19:05.557Z,93.96
2017-07-02T08:19:46.080Z,93.96
2017-07-02T08:20:26.471Z,94.15
2017-07-02T08:21:06.935Z,93
2017-07-02T08:23:24.882Z,93.53
2017-07-02T08:24:05.359Z,92.57
2017-07-02T08:26:03.075Z,92.52
2017-07-02T08:26:43.544Z,92.27
2017-07-02T08:27:23.985Z,92.27
2017-07-02T08:28:04.580Z,92.37
2017-07-02T08:28:44.981Z,91.31
2017-07-02T08:29:25.423Z,91.21
2017-07-02T08:30:05.900Z,91.6
2017-07-02T08:30:46.333Z,92.08
2017-07-02T08:31:26.791Z,91.69
2017-07-02T08:32:07.235Z,92.22
2017-07-02T08:32:47.632Z,92.56
2017-07-02T08:33:28.161Z,91.94
2017-07-02T08:34:08.635Z,92.76
2017-07-02T08:34:49.155Z,93.29
2017-07-02T08:35:29.622Z,92.85
2017-07-02T08:36:10.099Z,92.08
2017-07-02T08:36:50.561Z,92.08
2017-07-02T08:37:31.037Z,91.31
2017-07-02T08:38:11.470Z,92.22
2017-07-02T08:38:51.915Z,92.03
2017-07-02T08:39:32.351Z,91.41
2017-07-02T08:40:12.836Z,92.37
2017-07-02T08:40:53.311Z,91.17
2017-07-02T08:41:33.744Z,90.59
2017-07-02T08:42:14.200Z,92.52
2017-07-02T08:42:54.664Z,92.52
2017-07-02T08:43:35.147Z,91.17
2017-07-02T08:44:15.754Z,90.88
2017-07-02T08:44:56.146Z,91.17
2017-07-02T08:46:48.748Z,91.65
2017-07-02T08:47:29.235Z,92.13
2017-07-02T08:48:09.741Z,92.03
2017-07-02T08:48:50.156Z,91.8
2017-07-02T08:49:30.630Z,92.22
2017-07-02T08:50:11.120Z,92.03
2017-07-02T08:50:51.638Z,91.46
2017-07-02T08:51:32.124Z,90.97
2017-07-02T08:52:12.604Z,90.88
2017-07-02T08:52:53.120Z,91.41
2017-07-02T08:53:33.687Z,90.64
2017-07-02T08:54:14.079Z,90.64
2017-07-02T08:54:54.616Z,90.54
2017-07-02T08:55:35.077Z,89.91
2017-07-02T08:56:15.500Z,90.1
2017-07-02T08:56:55.916Z,89.86
2017-07-02T08:57:36.369Z,89.14
2017-07-02T08:58:16.814Z,89.53
2017-07-02T08:58:57.286Z,88.89
2017-07-02T09:00:50.172Z,86.72
2017-07-02T09:01:30.634Z,86.72
2017-07-02T09:02:11.099Z,86.28
2017-07-02T09:02:51.535Z,83.95
2017-07-02T09:03:31.984Z,82.35
2017-07-02T09:04:12.454Z,81.87
2017-07-02T09:04:52.913Z,81.92
2017-07-02T09:05:33.451Z,81.09
2017-07-02T09:07:26.013Z,81.19
2017-07-02T09:08:06.542Z,80.71
2017-07-02T09:08:46.989Z,79.7
2017-07-02T09:09:27.469Z,80.38
2017-07-02T09:10:07.914Z,81.34
2017-07-02T09:10:48.325Z,82.6
2017-07-02T09:11:28.772Z,81.63
2017-07-02T09:12:09.257Z,81.88
2017-07-02T09:12:49.742Z,82.79
2017-07-02T09:13:30.173Z,80.82
2017-07-02T09:14:10.673Z,80.72
2017-07-02T09:14:51.103Z,81.98
2017-07-02T09:15:31.582Z,81.82
2017-07-02T09:16:12.006Z,81.82
2017-07-02T09:16:52.520Z,79.99
2017-07-02T09:17:32.971Z,80.76
2017-07-02T09:18:13.430Z,79.56
2017-07-02T09:18:53.902Z,79.85
2017-07-02T09:19:34.371Z,80.43
2017-07-02T09:20:14.897Z,79.89
2017-07-02T09:20:55.318Z,80.33
2017-07-02T09:21:35.814Z,79.66
2017-07-02T09:22:16.244Z,79.75
2017-07-02T09:22:56.673Z,79.27
2017-07-02T09:23:37.149Z,78.83
2017-07-02T09:24:17.660Z,78.15
2017-07-02T09:24:58.047Z,77.71
2017-07-02T09:25:38.480Z,76.87
2017-07-02T09:27:25.982Z,73.95
2017-07-02T09:28:06.492Z,70.01
2017-07-02T09:28:46.985Z,69.53
2017-07-02T09:29:27.442Z,70.01
2017-07-02T09:30:07.963Z,67.98
2017-07-02T09:30:48.431Z,68.02
2017-07-02T09:31:28.880Z,67.34
2017-07-02T09:32:09.343Z,68.85
2017-07-02T09:32:49.812Z,68.18
2017-07-02T09:34:37.325Z,67.53
2017-07-02T09:35:17.766Z,68.56
2017-07-02T09:35:58.259Z,68.18
2017-07-02T09:36:38.721Z,67.3
2017-07-02T09:37:19.114Z,67.79
2017-07-02T09:37:59.549Z,69.24
2017-07-02T09:38:40.032Z,66.66
2017-07-02T09:39:20.486Z,67.44
2017-07-02T09:40:00.936Z,68.21
2017-07-02T09:40:41.433Z,66.95
2017-07-02T09:41:21.900Z,67.24
2017-07-02T09:42:02.314Z,66.2
2017-07-02T09:42:42.767Z,64.37
2017-07-02T09:43:23.324Z,63.65
2017-07-02T09:44:03.844Z,61.61
2017-07-02T09:44:44.298Z,61.35
2017-07-02T09:45:24.705Z,59.8
2017-07-02T09:46:05.168Z,57.72
2017-07-02T09:46:45.634Z,56.85
2017-07-02T09:47:26.101Z,56.97
2017-07-02T09:48:06.515Z,54.82
2017-07-02T09:49:54.035Z,51.61
2017-07-02T09:50:34.503Z,50.34